createdAt,value
2023-04-03T00:00:22.072Z,4.00
2023-04-03T00:03:11.515Z,4.70
2023-04-03T00:05:42.763Z,3.30
2023-04-03T00:08:13.733Z,2.80
2023-04-03T00:10:43.795Z,3.00
2023-04-03T00:13:15.121Z,3.40
2023-04-03T00:15:45.092Z,2.70
2023-04-03T00:18:14.604Z,3.00
2023-04-03T00:20:44.394Z,2.80
2023-04-03T00:23:13.682Z,3.40
2023-04-03T00:25:44.482Z,2.50
2023-04-03T00:28:14.548Z,2.70
2023-04-03T00:30:44.761Z,2.50
2023-04-03T00:33:15.213Z,2.40
2023-04-03T00:35:46.683Z,2.60
2023-04-03T00:38:17.226Z,2.70
2023-04-03T00:40:50.330Z,2.30
2023-04-03T00:43:27.048Z,2.60
2023-04-03T00:46:02.058Z,2.90
2023-04-03T00:48:41.917Z,3.00
2023-04-03T00:51:26.943Z,2.10
2023-04-03T00:54:04.617Z,2.10
2023-04-03T00:56:38.675Z,2.30
2023-04-03T00:59:24.633Z,2.30
2023-04-03T01:01:57.833Z,2.40
2023-04-03T01:04:33.095Z,2.30
2023-04-03T01:07:20.170Z,2.70
2023-04-03T01:09:55.006Z,2.50
2023-04-03T01:12:34.594Z,2.60
2023-04-03T01:15:11.745Z,2.70
2023-04-03T01:17:50.738Z,2.40
2023-04-03T01:20:32.518Z,2.10
2023-04-03T01:23:18.697Z,2.90
2023-04-03T01:25:56.177Z,2.60
2023-04-03T01:28:35.858Z,2.20
2023-04-03T01:31:29.476Z,2.50
2023-04-03T01:33:59.274Z,2.50
2023-04-03T01:36:32.761Z,2.60
2023-04-03T01:39:02.433Z,2.50
2023-04-03T01:41:32.533Z,2.60
2023-04-03T01:44:12.732Z,2.70
2023-04-03T01:46:43.866Z,2.70
2023-04-03T01:49:13.946Z,2.60
2023-04-03T01:51:43.796Z,2.70
2023-04-03T01:54:13.654Z,2.60
2023-04-03T01:56:43.495Z,3.00
2023-04-03T01:59:13.775Z,2.30
2023-04-03T02:01:46.678Z,2.30
2023-04-03T02:04:16.467Z,2.70
2023-04-03T02:06:45.988Z,2.60
2023-04-03T02:09:17.036Z,2.80
2023-04-03T02:11:46.775Z,2.40
2023-04-03T02:14:17.085Z,3.50
2023-04-03T02:16:50.889Z,3.10
2023-04-03T02:19:21.191Z,2.60
2023-04-03T02:21:52.181Z,3.30
2023-04-03T02:24:22.479Z,3.40
2023-04-03T02:26:52.380Z,2.20
2023-04-03T02:29:28.030Z,2.30
2023-04-03T02:31:58.318Z,3.00
2023-04-03T02:34:28.503Z,3.70
2023-04-03T02:37:00.152Z,3.30
2023-04-03T02:39:29.497Z,3.60
2023-04-03T02:41:59.469Z,2.80
2023-04-03T02:44:30.643Z,3.10
2023-04-03T02:47:01.701Z,3.20
2023-04-03T02:49:31.607Z,2.90
2023-04-03T02:52:01.554Z,2.80
2023-04-03T02:54:33.744Z,3.00
2023-04-03T02:57:07.190Z,2.80
2023-04-03T02:59:42.970Z,3.30
2023-04-03T03:02:13.901Z,3.50
2023-04-03T03:04:44.519Z,3.30
2023-04-03T03:07:14.573Z,3.30
2023-04-03T03:09:46.285Z,3.40
2023-04-03T03:12:16.108Z,3.10
2023-04-03T03:14:45.532Z,3.00
2023-04-03T03:17:16.115Z,3.50
2023-04-03T03:19:50.163Z,4.00
2023-04-03T03:22:20.295Z,3.00
2023-04-03T03:24:49.975Z,3.40
2023-04-03T03:27:20.262Z,3.60
2023-04-03T03:29:50.269Z,2.80
2023-04-03T03:32:20.791Z,3.20
2023-04-03T03:34:53.063Z,3.00
2023-04-03T03:37:24.066Z,3.30
2023-04-03T03:39:54.115Z,3.30
2023-04-03T03:42:25.201Z,3.60
2023-04-03T03:44:54.924Z,3.60
2023-04-03T03:47:25.689Z,3.70
2023-04-03T03:49:55.137Z,3.60
2023-04-03T03:52:25.660Z,3.40
2023-04-03T03:54:56.534Z,3.70
2023-04-03T03:57:28.461Z,3.50
2023-04-03T04:02:28.522Z,3.50
2023-04-03T04:04:58.336Z,3.50
2023-04-03T04:07:29.884Z,3.70
2023-04-03T04:10:01.249Z,2.70
2023-04-03T04:12:30.525Z,2.90
2023-04-03T04:15:05.779Z,3.20
2023-04-03T04:17:38.038Z,3.30
2023-04-03T04:20:18.787Z,3.20
2023-04-03T04:22:50.491Z,3.20
2023-04-03T04:25:21.067Z,3.40
2023-04-03T04:27:51.004Z,3.40
2023-04-03T04:30:21.057Z,3.60
2023-04-03T04:32:52.563Z,3.50
2023-04-03T04:35:23.604Z,3.30
2023-04-03T04:37:53.951Z,3.60
2023-04-03T04:40:24.989Z,3.80
2023-04-03T04:42:55.113Z,4.10
2023-04-03T04:45:26.464Z,4.00
2023-04-03T04:48:00.311Z,2.90
2023-04-03T04:50:30.958Z,3.10
2023-04-03T04:53:00.415Z,3.00
2023-04-03T04:55:29.909Z,3.10
2023-04-03T04:57:59.565Z,3.30
2023-04-03T05:00:28.867Z,3.10
2023-04-03T05:02:59.481Z,3.40
2023-04-03T05:05:29.553Z,3.10
2023-04-03T05:07:59.986Z,3.30
2023-04-03T05:10:30.170Z,2.90
2023-04-03T05:13:00.018Z,2.60
2023-04-03T05:15:30.003Z,2.70
2023-04-03T05:18:01.722Z,3.50
2023-04-03T05:20:33.233Z,2.50
2023-04-03T05:23:03.115Z,2.70
2023-04-03T05:25:33.830Z,3.30
2023-04-03T05:28:08.456Z,4.00
2023-04-03T05:30:38.357Z,3.60
2023-04-03T05:33:08.867Z,4.00
2023-04-03T05:35:49.155Z,3.10
2023-04-03T05:40:52.183Z,3.10
2023-04-03T05:43:22.304Z,3.30
2023-04-03T05:45:53.692Z,3.20
2023-04-03T05:48:24.327Z,3.40
2023-04-03T05:50:54.699Z,3.30
2023-04-03T05:53:30.974Z,3.80
2023-04-03T05:56:03.935Z,3.20
2023-04-03T05:58:35.135Z,2.90
2023-04-03T06:01:05.097Z,3.50
2023-04-03T06:03:38.587Z,3.60
2023-04-03T06:06:15.681Z,2.10
2023-04-03T06:08:47.687Z,3.50
2023-04-03T06:11:18.087Z,3.30
2023-04-03T06:13:49.427Z,3.20
2023-04-03T06:16:21.027Z,2.90
2023-04-03T06:18:51.395Z,3.50
2023-04-03T06:21:21.224Z,3.80
2023-04-03T06:23:53.274Z,3.40
2023-04-03T06:26:23.878Z,3.50
2023-04-03T06:28:53.510Z,3.30
2023-04-03T06:31:23.688Z,3.70
2023-04-03T06:33:54.061Z,4.10
2023-04-03T06:36:24.457Z,3.20
2023-04-03T06:38:53.869Z,3.60
2023-04-03T06:41:23.474Z,2.60
2023-04-03T06:43:53.304Z,3.20
2023-04-03T06:46:26.124Z,3.30
2023-04-03T06:48:56.494Z,3.30
2023-04-03T06:51:28.910Z,3.10
2023-04-03T06:54:00.947Z,3.30
2023-04-03T06:56:30.483Z,3.40
2023-04-03T06:59:01.174Z,2.80
2023-04-03T07:01:32.192Z,3.00
2023-04-03T07:06:35.073Z,3.00
2023-04-03T07:09:06.770Z,2.70
2023-04-03T07:14:09.561Z,2.90
2023-04-03T07:16:42.898Z,2.30
2023-04-03T07:19:13.339Z,3.10
2023-04-03T07:21:43.504Z,2.60
2023-04-03T07:24:16.203Z,2.40
2023-04-03T07:26:46.773Z,2.70
2023-04-03T07:29:16.474Z,2.10
2023-04-03T07:31:48.450Z,2.40
2023-04-03T07:34:29.189Z,2.90
2023-04-03T07:37:01.511Z,2.40
2023-04-03T07:39:33.714Z,2.90
2023-04-03T07:44:34.140Z,2.60
2023-04-03T07:47:04.052Z,2.90
2023-04-03T07:49:34.788Z,2.50
2023-04-03T07:52:14.196Z,2.30
2023-04-03T07:55:09.800Z,2.90
2023-04-03T07:57:39.899Z,2.40
2023-04-03T08:00:11.419Z,3.30
2023-04-03T08:02:46.138Z,2.80
2023-04-03T08:05:19.654Z,2.80
2023-04-03T08:07:50.384Z,3.30
2023-04-03T08:10:20.032Z,3.20
2023-04-03T08:12:50.376Z,3.00
2023-04-03T08:15:19.803Z,2.80
2023-04-03T08:17:49.204Z,2.90
2023-04-03T08:20:21.354Z,3.30
2023-04-03T08:22:50.950Z,3.30
2023-04-03T08:25:26.554Z,3.70
2023-04-03T08:27:57.366Z,3.10
2023-04-03T08:30:30.158Z,2.70
2023-04-03T08:33:03.979Z,2.60
2023-04-03T08:35:43.593Z,2.90
2023-04-03T08:38:16.545Z,2.40
2023-04-03T08:40:47.004Z,2.50
2023-04-03T08:43:37.386Z,2.40
2023-04-03T08:46:13.945Z,2.10
2023-04-03T08:48:45.332Z,2.40
2023-04-03T08:51:22.014Z,2.00
2023-04-03T08:54:10.832Z,2.20
2023-04-03T08:56:42.548Z,2.10
2023-04-03T08:59:23.166Z,2.60
2023-04-03T09:04:29.701Z,2.60
2023-04-03T09:07:10.511Z,2.40
2023-04-03T09:09:52.457Z,2.00
2023-04-03T09:12:34.545Z,2.00
2023-04-03T09:15:27.848Z,1.70
2023-04-03T09:18:22.254Z,1.80
2023-04-03T09:21:34.949Z,1.80
2023-04-03T09:24:08.913Z,2.20
2023-04-03T09:26:53.102Z,2.00
2023-04-03T09:29:25.394Z,2.10
2023-04-03T09:34:33.518Z,1.70
2023-04-03T09:37:10.673Z,1.80
2023-04-03T09:39:52.884Z,1.50
2023-04-03T09:42:27.906Z,1.60
2023-04-03T09:45:03.677Z,1.90
2023-04-03T09:47:37.963Z,2.00
2023-04-03T09:50:14.437Z,1.80
2023-04-03T09:52:47.952Z,1.80
2023-04-03T09:55:29.568Z,1.90
2023-04-03T09:58:05.012Z,1.70
2023-04-03T10:00:44.902Z,2.30
2023-04-03T10:03:49.312Z,2.00
2023-04-03T10:06:25.795Z,2.60
2023-04-03T10:09:07.037Z,2.40
2023-04-03T10:11:37.303Z,2.20
2023-04-03T10:14:18.972Z,2.30
2023-04-03T10:16:57.559Z,2.20
2023-04-03T10:19:45.953Z,2.20
2023-04-03T10:22:27.893Z,2.10
2023-04-03T10:25:24.838Z,3.00
2023-04-03T10:28:09.084Z,3.50
2023-04-03T10:31:03.493Z,2.90
2023-04-03T10:33:56.415Z,2.50
2023-04-03T10:36:46.649Z,2.60
2023-04-03T10:39:32.416Z,2.50
2023-04-03T10:42:35.958Z,2.60
2023-04-03T10:45:32.453Z,2.50
2023-04-03T10:48:22.938Z,2.80
2023-04-03T10:51:03.478Z,2.20
2023-04-03T10:54:06.702Z,2.10
2023-04-03T10:56:58.030Z,2.50
2023-04-03T10:59:38.796Z,1.80
2023-04-03T11:02:17.972Z,2.60
2023-04-03T11:05:04.199Z,2.20
2023-04-03T11:07:47.760Z,2.90
2023-04-03T11:10:43.825Z,2.90
2023-04-03T11:13:26.771Z,2.30
2023-04-03T11:15:58.695Z,2.70
2023-04-03T11:19:03.500Z,2.80
2023-04-03T11:21:43.726Z,2.40
2023-04-03T11:24:33.963Z,2.70
2023-04-03T11:27:06.616Z,2.90
2023-04-03T11:29:42.376Z,2.00
2023-04-03T11:32:26.982Z,2.30
2023-04-03T11:35:01.630Z,2.60
2023-04-03T11:37:41.651Z,2.40
2023-04-03T11:40:19.650Z,2.80
2023-04-03T11:42:56.931Z,2.20
2023-04-03T11:45:26.648Z,2.80
2023-04-03T11:47:57.728Z,3.00
2023-04-03T11:50:36.934Z,2.40
2023-04-03T11:53:09.566Z,2.90
2023-04-03T11:55:55.391Z,2.30
2023-04-03T11:58:31.884Z,2.50
2023-04-03T12:01:43.214Z,2.40
2023-04-03T12:04:18.410Z,2.40
2023-04-03T12:06:48.978Z,2.20
2023-04-03T12:09:35.115Z,2.50
2023-04-03T12:12:32.532Z,2.50
2023-04-03T12:15:50.996Z,2.80
2023-04-03T12:18:46.238Z,2.10
2023-04-03T12:21:20.611Z,2.60
2023-04-03T12:24:25.425Z,2.80
2023-04-03T12:27:04.819Z,1.90
2023-04-03T12:29:49.225Z,3.20
2023-04-03T12:32:37.977Z,3.50
2023-04-03T12:35:26.826Z,2.50
2023-04-03T12:38:35.859Z,2.40
2023-04-03T12:41:20.597Z,3.00
2023-04-03T12:44:18.317Z,3.10
2023-04-03T12:46:52.023Z,2.50
2023-04-03T12:49:30.785Z,2.80
2023-04-03T12:52:02.085Z,3.10
2023-04-03T12:54:45.156Z,2.50
2023-04-03T12:57:22.151Z,2.80
2023-04-03T12:59:53.080Z,2.60
2023-04-03T13:02:38.855Z,2.90
2023-04-03T13:05:11.977Z,3.00
2023-04-03T13:07:44.821Z,2.40
2023-04-03T13:10:18.873Z,2.50
2023-04-03T13:12:55.063Z,2.60
2023-04-03T13:15:32.077Z,2.60
2023-04-03T13:18:03.307Z,2.60
2023-04-03T13:20:37.265Z,2.40
2023-04-03T13:23:10.748Z,2.40
2023-04-03T13:25:50.775Z,2.70
2023-04-03T13:28:25.059Z,2.90
2023-04-03T13:31:32.635Z,2.70
2023-04-03T13:34:12.533Z,2.00
2023-04-03T13:36:54.971Z,2.40
2023-04-03T13:39:30.390Z,2.20
2023-04-03T13:42:04.133Z,1.80
2023-04-03T13:44:41.270Z,2.10
2023-04-03T13:47:11.705Z,1.50
2023-04-03T13:49:44.675Z,1.90
2023-04-03T13:52:28.633Z,1.90
2023-04-03T13:55:25.201Z,2.20
2023-04-03T13:58:04.737Z,1.60
2023-04-03T14:00:33.849Z,1.90
2023-04-03T14:03:23.671Z,1.80
2023-04-03T14:05:54.931Z,2.20
2023-04-03T14:08:32.605Z,3.10
2023-04-03T14:11:19.426Z,2.60
2023-04-03T14:13:51.939Z,2.10
2023-04-03T14:18:54.371Z,1.90
2023-04-03T14:21:24.756Z,2.00
2023-04-03T14:23:55.637Z,1.90
2023-04-03T14:26:28.584Z,3.20
2023-04-03T14:28:58.848Z,2.20
2023-04-03T14:31:28.944Z,2.30
2023-04-03T14:34:01.821Z,1.90
2023-04-03T14:36:33.987Z,2.10
2023-04-03T14:39:10.360Z,2.30
2023-04-03T14:41:43.560Z,2.30
2023-04-03T14:44:16.435Z,2.30
2023-04-03T14:46:56.341Z,2.70
2023-04-03T14:49:30.634Z,2.30
2023-04-03T14:52:00.251Z,1.80
2023-04-03T14:54:30.643Z,2.10
2023-04-03T14:57:02.274Z,1.80
2023-04-03T14:59:33.717Z,2.10
2023-04-03T15:02:03.427Z,2.00
2023-04-03T15:04:36.648Z,1.90
2023-04-03T15:07:05.999Z,2.10
2023-04-03T15:09:38.831Z,2.00
2023-04-03T15:12:11.446Z,2.80
2023-04-03T15:14:52.449Z,2.10
2023-04-03T15:17:25.464Z,2.10
2023-04-03T15:19:55.537Z,1.90
2023-04-03T15:22:25.273Z,1.80
2023-04-03T15:24:54.508Z,2.10
2023-04-03T15:27:24.131Z,2.20
2023-04-03T15:29:54.848Z,2.00
2023-04-03T15:32:24.766Z,2.70
2023-04-03T15:34:56.854Z,2.30
2023-04-03T15:37:26.625Z,2.50
2023-04-03T15:39:56.870Z,2.20
2023-04-03T15:42:26.770Z,1.70
2023-04-03T15:44:57.464Z,2.00
2023-04-03T15:47:28.406Z,2.10
2023-04-03T15:49:58.216Z,2.30
2023-04-03T15:52:28.369Z,1.40
2023-04-03T15:54:58.315Z,1.70
2023-04-03T15:57:28.325Z,1.50
2023-04-03T15:59:58.646Z,1.60
2023-04-03T16:02:29.076Z,2.40
2023-04-03T16:04:59.306Z,1.70
2023-04-03T16:07:28.854Z,1.70
2023-04-03T16:09:59.220Z,1.90
2023-04-03T16:12:28.503Z,1.70
2023-04-03T16:14:58.181Z,1.80
2023-04-03T16:17:29.315Z,2.00
2023-04-03T16:20:01.283Z,1.70
2023-04-03T16:22:31.967Z,2.10
2023-04-03T16:25:01.347Z,2.30
2023-04-03T16:27:32.392Z,2.30
2023-04-03T16:30:03.100Z,2.10
2023-04-03T16:32:33.642Z,1.70
2023-04-03T16:35:03.334Z,2.10
2023-04-03T16:37:33.491Z,1.80
2023-04-03T16:40:07.295Z,2.00
2023-04-03T16:42:38.014Z,2.30
2023-04-03T16:45:09.518Z,2.00
2023-04-03T16:47:39.116Z,2.40
2023-04-03T16:50:10.159Z,2.20
2023-04-03T16:52:41.695Z,2.10
2023-04-03T16:55:11.531Z,2.30
2023-04-03T16:57:42.945Z,1.70
2023-04-03T17:00:13.805Z,1.60
2023-04-03T17:02:43.494Z,1.80
2023-04-03T17:05:13.158Z,1.70
2023-04-03T17:07:42.861Z,1.60
2023-04-03T17:10:15.928Z,1.50
2023-04-03T17:12:45.877Z,1.70
2023-04-03T17:15:16.615Z,2.10
2023-04-03T17:17:46.369Z,2.20
2023-04-03T17:20:16.579Z,2.40
2023-04-03T17:22:45.996Z,1.70
2023-04-03T17:25:16.469Z,2.30
2023-04-03T17:27:46.139Z,2.10
2023-04-03T17:30:16.884Z,2.00
2023-04-03T17:32:47.766Z,1.70
2023-04-03T17:35:18.822Z,2.00
2023-04-03T17:37:53.322Z,1.90
2023-04-03T17:40:22.728Z,2.20
2023-04-03T17:42:53.572Z,1.80
2023-04-03T17:45:24.752Z,2.30
2023-04-03T17:47:55.371Z,1.90
2023-04-03T17:50:24.919Z,1.80
2023-04-03T17:52:54.701Z,1.70
2023-04-03T17:55:27.873Z,1.60
2023-04-03T17:57:57.826Z,2.10
2023-04-03T18:00:28.717Z,1.90
2023-04-03T18:03:16.717Z,1.60
2023-04-03T18:06:07.718Z,2.40
2023-04-03T18:08:48.394Z,1.40
2023-04-03T18:11:22.267Z,2.30
2023-04-03T18:13:53.271Z,1.60
2023-04-03T18:16:22.753Z,2.00
2023-04-03T18:19:02.553Z,2.00
2023-04-03T18:21:46.365Z,2.00
2023-04-03T18:24:19.008Z,2.40
2023-04-03T18:26:57.939Z,2.10
2023-04-03T18:29:38.826Z,2.30
2023-04-03T18:32:10.946Z,1.90
2023-04-03T18:34:40.954Z,1.70
2023-04-03T18:37:11.669Z,1.90
2023-04-03T18:39:42.068Z,2.20
2023-04-03T18:42:17.639Z,1.90
2023-04-03T18:44:54.080Z,1.80
2023-04-03T18:47:23.475Z,2.50
2023-04-03T18:49:54.112Z,2.90
2023-04-03T18:52:25.863Z,2.10
2023-04-03T18:54:57.480Z,1.80
2023-04-03T18:57:29.113Z,2.40
2023-04-03T18:59:58.618Z,2.20
2023-04-03T19:02:30.503Z,2.70
2023-04-03T19:07:32.875Z,2.10
2023-04-03T19:10:02.848Z,2.10
2023-04-03T19:12:32.917Z,2.00
2023-04-03T19:15:04.531Z,2.40
2023-04-03T19:17:33.844Z,1.90
2023-04-03T19:20:05.188Z,1.90
2023-04-03T19:22:36.084Z,1.80
2023-04-03T19:25:08.244Z,2.40
2023-04-03T19:30:12.445Z,1.60
2023-04-03T19:32:42.611Z,2.10
2023-04-03T19:35:12.443Z,1.90
2023-04-03T19:37:43.576Z,2.10
2023-04-03T19:40:14.031Z,1.50
2023-04-03T19:42:43.362Z,1.70
2023-04-03T19:45:16.232Z,1.90
2023-04-03T19:47:47.791Z,2.10
2023-04-03T19:50:17.873Z,1.80
2023-04-03T19:52:48.553Z,2.30
2023-04-03T19:55:18.806Z,1.80
2023-04-03T19:57:48.474Z,1.90
2023-04-03T20:00:21.025Z,1.00
2023-04-03T20:02:51.074Z,1.90
2023-04-03T20:05:22.024Z,2.50
2023-04-03T20:07:51.956Z,1.80
2023-04-03T20:10:22.091Z,1.60
2023-04-03T20:12:51.830Z,1.90
2023-04-03T20:15:21.843Z,2.00
2023-04-03T20:17:51.380Z,2.00
2023-04-03T20:20:20.925Z,1.80
2023-04-03T20:22:53.194Z,2.10
2023-04-03T20:25:43.725Z,2.10
2023-04-03T20:28:16.185Z,1.70
2023-04-03T20:30:48.554Z,2.10
2023-04-03T20:33:19.633Z,2.10
2023-04-03T20:35:51.919Z,2.20
2023-04-03T20:38:23.679Z,1.90
2023-04-03T20:40:55.094Z,1.50
2023-04-03T20:43:25.806Z,1.90
2023-04-03T20:45:55.073Z,1.70
2023-04-03T20:48:24.298Z,2.20
2023-04-03T20:50:53.825Z,2.00
2023-04-03T20:53:23.543Z,2.00
2023-04-03T20:56:00.753Z,2.10
2023-04-03T20:58:33.716Z,2.00
2023-04-03T21:01:03.461Z,2.30
2023-04-03T21:03:34.410Z,1.70
2023-04-03T21:06:06.758Z,2.00
2023-04-03T21:09:13.655Z,2.40
2023-04-03T21:12:20.914Z,3.10
2023-04-03T21:15:28.819Z,2.60
2023-04-03T21:18:09.767Z,2.80
2023-04-03T21:20:40.748Z,2.60
2023-04-03T21:23:10.612Z,2.10
2023-04-03T21:25:41.104Z,2.70
2023-04-03T21:28:10.608Z,1.90
2023-04-03T21:30:40.264Z,2.50
2023-04-03T21:33:12.894Z,2.00
2023-04-03T21:35:42.673Z,2.20
2023-04-03T21:38:12.725Z,2.70
2023-04-03T21:40:47.515Z,2.70
2023-04-03T21:43:17.364Z,2.50
2023-04-03T21:45:48.495Z,2.40
2023-04-03T21:48:20.647Z,2.30
2023-04-03T21:50:54.669Z,2.60
2023-04-03T21:53:24.594Z,2.90
2023-04-03T21:58:50.483Z,2.20
2023-04-03T22:01:21.487Z,2.60
2023-04-03T22:03:51.251Z,2.30
2023-04-03T22:06:20.263Z,2.20
2023-04-03T22:08:49.800Z,2.20
2023-04-03T22:11:21.796Z,2.30
2023-04-03T22:13:55.383Z,2.40
2023-04-03T22:16:25.842Z,2.90
2023-04-03T22:18:57.524Z,2.50
2023-04-03T22:21:27.485Z,2.20
2023-04-03T22:23:58.683Z,2.10
2023-04-03T22:26:29.173Z,2.90
2023-04-03T22:28:58.855Z,1.60
2023-04-03T22:31:28.208Z,2.00
2023-04-03T22:33:58.280Z,2.80
2023-04-03T22:36:28.111Z,3.00
2023-04-03T22:38:58.107Z,2.00
2023-04-03T22:41:27.354Z,2.30
2023-04-03T22:43:58.217Z,2.60
2023-04-03T22:46:28.664Z,2.50
2023-04-03T22:48:58.052Z,2.50
2023-04-03T22:51:28.478Z,2.40
2023-04-03T22:53:58.848Z,2.10
2023-04-03T22:56:28.775Z,2.50
2023-04-03T22:59:00.205Z,2.70
2023-04-03T23:01:31.117Z,2.30
2023-04-03T23:04:01.304Z,2.10
2023-04-03T23:06:30.450Z,1.50
2023-04-03T23:09:03.201Z,2.40
2023-04-03T23:11:32.523Z,2.50
2023-04-03T23:14:03.563Z,2.70
2023-04-03T23:16:33.529Z,2.60
2023-04-03T23:19:04.828Z,2.80
2023-04-03T23:21:34.819Z,2.20
2023-04-03T23:24:04.760Z,2.30
2023-04-03T23:26:34.637Z,2.70
2023-04-03T23:29:06.010Z,2.40
2023-04-03T23:31:35.891Z,2.70
2023-04-03T23:34:06.851Z,2.80
2023-04-03T23:36:38.681Z,2.30
2023-04-03T23:39:09.319Z,2.30
2023-04-03T23:41:38.828Z,2.70
2023-04-03T23:44:08.802Z,3.40
2023-04-03T23:46:39.645Z,3.10
2023-04-03T23:49:09.983Z,2.50
2023-04-03T23:51:39.923Z,2.80
2023-04-03T23:54:09.672Z,2.90
2023-04-03T23:56:40.123Z,2.90
2023-04-03T23:59:10.735Z,3.00
